La Chute, Louisiana
Current Conditions -  °F | °C
As of 6:53 PM on Wednesday 22 Oct 2014 (Local Time) from KDTN Reporting Station
Clear Clear  
Wind Chill: 67°   Ceiling: Unl
Heat Index: 67°   Visibility: 10mi
Dew Point: 51°   Wind: 3mph
Humidity: 57%   Direction: 60°ENE
Pressure: 30.1"   Gusts: NA
Location:  32.5051°N, 93.7448°W
Report Text: KDTN 222353Z 06003KT 10SM CLR 19/11 A3010 RMK AO2 SLP192 T01940106 10250 20194 53002
Loading
Personal Weather Stations






























Interactive Weather Map
Tropical Storm Tracking
New forecast layout! Learn more

10-Day Weather Forecast

Advertisements
Track Severe Weather on mobile